Tor Arne — LDOL — position and weather

sailwx.info

Track history (hours):
 
Tides and Currents Weather Stations Pressure Air Temp Water Temp Dewpoint Dewpoint Depression Visibility Wind Speed Wind Dir Waves Ship Positions

Tor Arne

Last reported at 2018-Apr-11 16:37 UTC. Time now 2018-Apr-24 10:51 UTC.
Position N 70°34' E 023°06'.
Warning: this ship's position is 12 days out of date.

Length 23 m; draft 2 m.

Type: Towing. MMSI: 257007900.

Date/timePositionNaut miles runAvg speedWind from/ knotsBaromVisibWave heightAir tempDewpointWater temp
2018-Apr-11 16:37N 70°34' E 023°06'1 7.6
2018-Apr-11 16:27N 70°35' E 023°09'4 7.9
2018-Apr-11 15:53N 70°38' E 023°18'3 8.0
2018-Apr-11 15:30N 70°40' E 023°24'  
2018-Apr-08 17:13N 70°42' E 023°35'2 8.0
2018-Apr-08 17:00N 70°41' E 023°35'2 3.5
2018-Apr-08 16:30N 70°40' E 023°40'0 0.0
2018-Apr-08 16:00N 70°40' E 023°40'3 5.6
2018-Apr-08 15:30N 70°37' E 023°38'1 1.3
2018-Apr-08 15:00N 70°38' E 023°39'3 5.1
2018-Apr-08 14:30N 70°38' E 023°31'4 7.8
2018-Apr-08 14:00N 70°37' E 023°20'4 8.3
2018-Apr-08 13:28N 70°34' E 023°09'143 5.6
2018-Apr-07 12:05N 69°07' E 017°40'0 1.6
2018-Apr-07 11:59N 69°07' E 017°40'1 1.7
2018-Apr-07 11:29N 69°07' E 017°37'1 1.9
2018-Apr-07 11:00N 69°07' E 017°35'1 1.9
2018-Apr-07 10:30N 69°06' E 017°33'1 2.1
2018-Apr-07 09:54N 69°06' E 017°29'  
Track history (hours):
 
Tides and Currents Weather Stations Pressure Air Temp Water Temp Dewpoint Dewpoint Depression Visibility Wind Speed Wind Dir Waves Ship Positions

Tor Arne

Last reported at 2018-Apr-11 16:37 UTC. Time now 2018-Apr-24 10:51 UTC.
Position N 70°34' E 023°06'.
Warning: this ship's position is 12 days out of date.

Length 23 m; draft 2 m.

Type: Towing. MMSI: 257007900.

Date/timePositionNaut miles runAvg speedWind from/ knotsBaromVisibWave heightAir tempDewpointWater temp
2018-Apr-11 16:37N 70°34' E 023°06'1 7.6
2018-Apr-11 16:27N 70°35' E 023°09'4 7.9
2018-Apr-11 15:53N 70°38' E 023°18'3 8.0
2018-Apr-11 15:30N 70°40' E 023°24'  
2018-Apr-08 17:13N 70°42' E 023°35'2 8.0
2018-Apr-08 17:00N 70°41' E 023°35'2 3.5
2018-Apr-08 16:30N 70°40' E 023°40'0 0.0
2018-Apr-08 16:00N 70°40' E 023°40'3 5.6
2018-Apr-08 15:30N 70°37' E 023°38'1 1.3
2018-Apr-08 15:00N 70°38' E 023°39'3 5.1
2018-Apr-08 14:30N 70°38' E 023°31'4 7.8
2018-Apr-08 14:00N 70°37' E 023°20'4 8.3
2018-Apr-08 13:28N 70°34' E 023°09'143 5.6
2018-Apr-07 12:05N 69°07' E 017°40'0 1.6
2018-Apr-07 11:59N 69°07' E 017°40'1 1.7
2018-Apr-07 11:29N 69°07' E 017°37'1 1.9
2018-Apr-07 11:00N 69°07' E 017°35'1 1.9
2018-Apr-07 10:30N 69°06' E 017°33'1 2.1
2018-Apr-07 09:54N 69°06' E 017°29'  

Dump ship's entire track history